createdAt,value
2023-04-16T00:00:12.593Z,100.00
2023-04-16T00:03:16.819Z,100.00
2023-04-16T00:06:21.505Z,100.00
2023-04-16T00:09:24.680Z,100.00
2023-04-16T00:12:27.542Z,100.00
2023-04-16T00:15:30.787Z,100.00
2023-04-16T00:18:33.623Z,100.00
2023-04-16T00:21:36.774Z,100.00
2023-04-16T00:24:39.682Z,100.00
2023-04-16T00:27:42.870Z,100.00
2023-04-16T00:30:45.958Z,100.00
2023-04-16T00:33:50.756Z,100.00
2023-04-16T00:36:53.725Z,100.00
2023-04-16T00:39:56.999Z,100.00
2023-04-16T00:42:59.970Z,100.00
2023-04-16T00:46:07.571Z,100.00
2023-04-16T00:49:10.887Z,100.00
2023-04-16T00:52:15.546Z,100.00
2023-04-16T00:55:19.042Z,100.00
2023-04-16T00:58:22.914Z,100.00
2023-04-16T01:01:26.066Z,100.00
2023-04-16T01:04:31.067Z,100.00
2023-04-16T01:07:34.430Z,100.00
2023-04-16T01:10:37.721Z,100.00
2023-04-16T01:13:40.934Z,100.00
2023-04-16T01:16:44.153Z,100.00
2023-04-16T01:19:46.996Z,100.00
2023-04-16T01:22:50.143Z,100.00
2023-04-16T01:25:53.144Z,100.00
2023-04-16T01:28:56.416Z,100.00
2023-04-16T01:31:59.362Z,100.00
2023-04-16T01:35:03.329Z,100.00
2023-04-16T01:38:08.152Z,100.00
2023-04-16T01:41:11.411Z,100.00
2023-04-16T01:44:14.309Z,100.00
2023-04-16T01:47:18.486Z,100.00
2023-04-16T01:50:23.522Z,100.00
2023-04-16T01:53:26.856Z,100.00
2023-04-16T01:56:29.715Z,100.00
2023-04-16T01:59:33.241Z,100.00
2023-04-16T02:02:36.674Z,100.00
2023-04-16T02:05:40.100Z,100.00
2023-04-16T02:08:43.394Z,100.00
2023-04-16T02:11:47.033Z,100.00
2023-04-16T02:14:50.251Z,100.00
2023-04-16T02:17:57.233Z,100.00
2023-04-16T02:21:00.945Z,100.00
2023-04-16T02:24:04.263Z,100.00
2023-04-16T02:27:08.467Z,100.00
2023-04-16T02:30:12.886Z,100.00
2023-04-16T02:33:16.452Z,100.00
2023-04-16T02:36:20.985Z,100.00
2023-04-16T02:39:24.193Z,100.00
2023-04-16T02:42:29.053Z,100.00
2023-04-16T02:45:32.303Z,100.00
2023-04-16T02:48:35.395Z,100.00
2023-04-16T02:51:38.622Z,100.00
2023-04-16T02:54:41.477Z,100.00
2023-04-16T02:57:44.729Z,100.00
2023-04-16T03:00:48.114Z,100.00
2023-04-16T03:03:51.349Z,100.00
2023-04-16T03:06:54.335Z,100.00
2023-04-16T03:09:57.643Z,100.00
2023-04-16T03:13:01.234Z,100.00
2023-04-16T03:16:04.671Z,100.00
2023-04-16T03:19:07.775Z,100.00
2023-04-16T03:22:12.313Z,100.00
2023-04-16T03:25:15.320Z,100.00
2023-04-16T03:28:18.546Z,100.00
2023-04-16T03:31:24.438Z,100.00
2023-04-16T03:34:28.408Z,100.00
2023-04-16T03:37:31.524Z,100.00
2023-04-16T03:40:34.980Z,100.00
2023-04-16T03:43:38.064Z,100.00
2023-04-16T03:46:41.400Z,100.00
2023-04-16T03:49:44.420Z,100.00
2023-04-16T03:52:49.544Z,100.00
2023-04-16T03:55:53.521Z,100.00
2023-04-16T03:58:58.690Z,100.00
2023-04-16T04:02:01.767Z,100.00
2023-04-16T04:05:06.607Z,100.00
2023-04-16T04:08:11.304Z,100.00
2023-04-16T04:11:14.690Z,100.00
2023-04-16T04:14:18.319Z,100.00
2023-04-16T04:17:21.730Z,100.00
2023-04-16T04:20:24.750Z,100.00
2023-04-16T04:23:28.054Z,100.00
2023-04-16T04:26:30.683Z,100.00
2023-04-16T04:29:34.116Z,100.00
2023-04-16T04:32:37.168Z,100.00
2023-04-16T04:35:40.493Z,100.00
2023-04-16T04:38:44.366Z,100.00
2023-04-16T04:41:48.376Z,100.00
2023-04-16T04:44:52.548Z,100.00
2023-04-16T04:47:58.593Z,100.00
2023-04-16T04:51:02.979Z,100.00
2023-04-16T04:54:09.172Z,100.00
2023-04-16T04:57:12.181Z,100.00
2023-04-16T05:00:17.315Z,100.00
2023-04-16T05:03:22.170Z,100.00
2023-04-16T05:06:26.809Z,100.00
2023-04-16T05:09:31.405Z,100.00
2023-04-16T05:12:34.548Z,100.00
2023-04-16T05:15:37.936Z,100.00
2023-04-16T05:18:41.557Z,100.00
2023-04-16T05:21:44.474Z,100.00
2023-04-16T05:24:47.863Z,100.00
2023-04-16T05:27:50.879Z,100.00
2023-04-16T05:30:54.183Z,100.00
2023-04-16T05:33:57.098Z,100.00
2023-04-16T05:37:01.019Z,100.00
2023-04-16T05:40:04.252Z,100.00
2023-04-16T05:43:08.640Z,100.00
2023-04-16T05:46:11.657Z,100.00
2023-04-16T05:49:19.335Z,100.00
2023-04-16T05:52:22.378Z,100.00
2023-04-16T05:55:26.816Z,100.00
2023-04-16T05:58:29.754Z,100.00
2023-04-16T06:01:34.406Z,100.00
2023-04-16T06:04:37.737Z,100.00
2023-04-16T06:07:40.686Z,100.00
2023-04-16T06:10:46.632Z,100.00
2023-04-16T06:13:49.652Z,100.00
2023-04-16T06:16:52.942Z,100.00
2023-04-16T06:19:55.891Z,100.00
2023-04-16T06:22:59.072Z,100.00
2023-04-16T06:26:01.969Z,100.00
2023-04-16T06:29:05.292Z,100.00
2023-04-16T06:32:08.439Z,100.00
2023-04-16T06:35:12.998Z,100.00
2023-04-16T06:38:16.331Z,100.00
2023-04-16T06:41:20.440Z,100.00
2023-04-16T06:44:23.360Z,100.00
2023-04-16T06:47:27.270Z,100.00
2023-04-16T06:50:30.221Z,100.00
2023-04-16T06:53:33.652Z,100.00
2023-04-16T06:56:37.554Z,100.00
2023-04-16T06:59:41.168Z,100.00
2023-04-16T07:02:44.104Z,100.00
2023-04-16T07:05:47.433Z,100.00
2023-04-16T07:08:50.316Z,100.00
2023-04-16T07:11:54.212Z,100.00
2023-04-16T07:14:57.297Z,100.00
2023-04-16T07:18:01.358Z,100.00
2023-04-16T07:21:04.508Z,100.00
2023-04-16T07:24:08.448Z,100.00
2023-04-16T07:27:11.812Z,100.00
2023-04-16T07:30:15.383Z,100.00
2023-04-16T07:33:18.658Z,100.00
2023-04-16T07:36:22.031Z,100.00
2023-04-16T07:39:24.913Z,100.00
2023-04-16T07:42:28.251Z,100.00
2023-04-16T07:45:31.400Z,100.00
2023-04-16T07:48:35.424Z,100.00
2023-04-16T07:51:38.356Z,100.00
2023-04-16T07:54:41.610Z,100.00
2023-04-16T07:57:44.581Z,100.00
2023-04-16T08:00:50.863Z,100.00
2023-04-16T08:03:55.009Z,97.44
2023-04-16T08:06:58.026Z,97.81
2023-04-16T08:10:02.330Z,96.50
2023-04-16T08:13:05.521Z,94.50
2023-04-16T08:16:09.034Z,91.05
2023-04-16T08:19:12.449Z,88.84
2023-04-16T08:22:16.198Z,86.51
2023-04-16T08:25:20.331Z,87.19
2023-04-16T08:28:23.577Z,86.15
2023-04-16T08:31:27.406Z,85.63
2023-04-16T08:34:31.301Z,85.34
2023-04-16T08:37:34.688Z,86.32
2023-04-16T08:40:42.504Z,85.63
2023-04-16T08:43:46.342Z,85.76
2023-04-16T08:46:52.169Z,82.99
2023-04-16T08:49:58.396Z,80.99
2023-04-16T08:53:07.039Z,81.44
2023-04-16T08:56:12.270Z,81.82
2023-04-16T08:59:16.676Z,84.32
2023-04-16T09:02:20.186Z,83.33
2023-04-16T09:05:26.631Z,82.46
2023-04-16T09:08:30.572Z,81.39
2023-04-16T09:11:35.322Z,79.98
2023-04-16T09:14:41.960Z,78.27
2023-04-16T09:17:46.443Z,77.57
2023-04-16T09:20:56.562Z,79.37
2023-04-16T09:24:01.288Z,79.57
2023-04-16T09:27:05.729Z,77.23
2023-04-16T09:30:28.900Z,77.32
2023-04-16T09:33:34.453Z,76.50
2023-04-16T09:36:40.151Z,75.49
2023-04-16T09:39:46.311Z,75.69
2023-04-16T09:42:51.171Z,75.46
2023-04-16T09:45:56.260Z,74.64
2023-04-16T09:49:09.450Z,73.88
2023-04-16T09:52:23.750Z,72.99
2023-04-16T09:55:33.156Z,72.97
2023-04-16T09:58:37.607Z,73.76
2023-04-16T10:01:43.275Z,69.45
2023-04-16T10:04:51.486Z,68.24
2023-04-16T10:08:01.427Z,65.38
2023-04-16T10:11:05.019Z,65.05
2023-04-16T10:14:08.497Z,69.06
2023-04-16T10:17:12.441Z,65.32
2023-04-16T10:20:17.272Z,61.65
2023-04-16T10:23:22.158Z,57.71
2023-04-16T10:26:25.542Z,56.52
2023-04-16T10:29:30.283Z,53.90
2023-04-16T10:32:34.580Z,53.68
2023-04-16T10:35:41.254Z,53.17
2023-04-16T10:38:49.716Z,52.86
2023-04-16T10:42:12.420Z,53.97
2023-04-16T10:45:18.026Z,52.74
2023-04-16T10:48:21.560Z,55.57
2023-04-16T10:51:35.961Z,54.30
2023-04-16T10:54:41.267Z,53.13
2023-04-16T10:57:44.334Z,52.38
2023-04-16T11:00:53.819Z,51.60
2023-04-16T11:04:00.563Z,53.95
2023-04-16T11:07:08.390Z,51.46
2023-04-16T11:10:13.893Z,52.84
2023-04-16T11:13:18.603Z,51.87
2023-04-16T11:16:21.517Z,51.92
2023-04-16T11:19:25.480Z,49.81
2023-04-16T11:22:28.485Z,48.03
2023-04-16T11:25:56.019Z,47.15
2023-04-16T11:29:00.481Z,48.38
2023-04-16T11:32:03.756Z,47.46
2023-04-16T11:35:19.140Z,47.05
2023-04-16T11:38:33.243Z,45.77
2023-04-16T11:41:49.311Z,45.61
2023-04-16T11:44:56.889Z,44.24
2023-04-16T11:47:59.879Z,43.93
2023-04-16T11:51:03.227Z,45.63
2023-04-16T11:54:10.375Z,44.14
2023-04-16T11:57:15.372Z,41.00
2023-04-16T12:00:19.288Z,41.76
2023-04-16T12:03:47.005Z,41.49
2023-04-16T12:07:11.946Z,42.71
2023-04-16T12:10:15.344Z,44.13
2023-04-16T12:13:18.497Z,42.16
2023-04-16T12:16:21.849Z,43.67
2023-04-16T12:19:25.383Z,43.52
2023-04-16T12:22:29.413Z,44.06
2023-04-16T12:25:32.370Z,44.84
2023-04-16T12:28:38.636Z,43.97
2023-04-16T12:31:41.768Z,42.65
2023-04-16T12:34:51.796Z,43.57
2023-04-16T12:37:54.725Z,45.27
2023-04-16T12:40:58.482Z,43.93
2023-04-16T12:44:07.418Z,41.43
2023-04-16T12:47:10.959Z,42.37
2023-04-16T12:50:13.958Z,43.10
2023-04-16T12:53:18.274Z,43.45
2023-04-16T12:56:22.542Z,43.23
2023-04-16T12:59:25.645Z,43.47
2023-04-16T13:02:29.771Z,43.27
2023-04-16T13:05:33.595Z,42.36
2023-04-16T13:08:37.667Z,42.81
2023-04-16T13:11:41.245Z,45.01
2023-04-16T13:14:45.118Z,42.82
2023-04-16T13:17:48.655Z,42.82
2023-04-16T13:20:52.112Z,44.24
2023-04-16T13:23:55.417Z,41.93
2023-04-16T13:26:58.734Z,44.33
2023-04-16T13:30:02.341Z,44.06
2023-04-16T13:33:05.877Z,42.50
2023-04-16T13:36:09.238Z,43.15
2023-04-16T13:39:12.353Z,42.89
2023-04-16T13:42:16.925Z,43.65
2023-04-16T13:45:22.578Z,45.33
2023-04-16T13:48:28.721Z,44.50
2023-04-16T13:51:33.270Z,44.73
2023-04-16T13:54:37.013Z,45.97
2023-04-16T13:57:41.516Z,44.85
2023-04-16T14:00:46.309Z,45.80
2023-04-16T14:03:51.189Z,45.70
2023-04-16T14:06:54.170Z,45.80
2023-04-16T14:09:57.428Z,46.17
2023-04-16T14:13:00.790Z,44.88
2023-04-16T14:16:04.997Z,46.62
2023-04-16T14:19:08.604Z,45.92
2023-04-16T14:22:11.926Z,46.35
2023-04-16T14:25:15.781Z,47.15
2023-04-16T14:28:20.692Z,47.60
2023-04-16T14:31:23.679Z,46.66
2023-04-16T14:34:26.949Z,45.73
2023-04-16T14:37:30.018Z,44.12
2023-04-16T14:40:33.366Z,44.79
2023-04-16T14:43:39.895Z,48.27
2023-04-16T14:46:44.248Z,48.05
2023-04-16T14:49:48.773Z,47.93
2023-04-16T14:52:54.316Z,48.99
2023-04-16T14:55:59.054Z,47.55
2023-04-16T14:59:02.409Z,45.82
2023-04-16T15:02:06.883Z,42.04
2023-04-16T15:05:10.897Z,37.32
2023-04-16T15:08:13.768Z,39.91
2023-04-16T15:11:18.835Z,39.81
2023-04-16T15:14:21.974Z,45.39
2023-04-16T15:17:25.393Z,43.82
2023-04-16T15:20:28.638Z,43.62
2023-04-16T15:23:32.027Z,44.04
2023-04-16T15:26:35.145Z,47.13
2023-04-16T15:29:38.994Z,48.76
2023-04-16T15:32:44.325Z,47.91
2023-04-16T15:35:47.784Z,47.41
2023-04-16T15:38:51.188Z,48.42
2023-04-16T15:42:00.657Z,48.85
2023-04-16T15:45:07.210Z,49.77
2023-04-16T15:48:11.493Z,51.13
2023-04-16T15:51:14.985Z,52.44
2023-04-16T15:54:19.803Z,51.51
2023-04-16T15:57:22.895Z,51.68
2023-04-16T16:00:26.688Z,52.01
2023-04-16T16:03:32.669Z,52.74
2023-04-16T16:06:38.453Z,54.40
2023-04-16T16:09:48.459Z,55.71
2023-04-16T16:12:52.399Z,57.09
2023-04-16T16:15:56.681Z,58.23
2023-04-16T16:19:00.664Z,61.94
2023-04-16T16:22:06.264Z,65.81
2023-04-16T16:25:10.332Z,67.92
2023-04-16T16:28:17.853Z,67.04
2023-04-16T16:31:22.132Z,67.65
2023-04-16T16:34:26.710Z,68.35
2023-04-16T16:37:31.697Z,69.40
2023-04-16T16:40:35.394Z,68.40
2023-04-16T16:43:39.609Z,68.22
2023-04-16T16:46:46.057Z,68.79
2023-04-16T16:49:53.696Z,71.83
2023-04-16T16:53:02.168Z,71.79
2023-04-16T16:56:06.844Z,72.52
2023-04-16T16:59:11.817Z,73.70
2023-04-16T17:02:17.103Z,73.73
2023-04-16T17:05:24.238Z,73.56
2023-04-16T17:08:29.205Z,74.49
2023-04-16T17:11:34.520Z,73.77
2023-04-16T17:14:39.953Z,75.14
2023-04-16T17:17:48.424Z,75.07
2023-04-16T17:20:52.223Z,74.86
2023-04-16T17:23:58.774Z,75.74
2023-04-16T17:27:04.798Z,75.68
2023-04-16T17:30:09.844Z,75.01
2023-04-16T17:33:16.211Z,75.59
2023-04-16T17:36:24.177Z,76.27
2023-04-16T17:39:27.805Z,75.76
2023-04-16T17:42:31.805Z,76.56
2023-04-16T17:45:36.023Z,78.71
2023-04-16T17:48:41.694Z,77.82
2023-04-16T17:51:47.777Z,79.43
2023-04-16T17:54:57.221Z,79.03
2023-04-16T17:58:02.478Z,79.69
2023-04-16T18:01:11.732Z,79.82
2023-04-16T18:04:16.672Z,79.70
2023-04-16T18:07:20.984Z,80.84
2023-04-16T18:10:25.489Z,81.61
2023-04-16T18:13:32.053Z,81.36
2023-04-16T18:16:37.012Z,82.79
2023-04-16T18:19:41.336Z,82.56
2023-04-16T18:22:45.045Z,82.91
2023-04-16T18:25:50.707Z,83.86
2023-04-16T18:28:55.821Z,83.92
2023-04-16T18:32:03.672Z,84.58
2023-04-16T18:35:08.653Z,83.85
2023-04-16T18:38:14.110Z,83.86
2023-04-16T18:41:23.082Z,84.60
2023-04-16T18:44:27.415Z,85.97
2023-04-16T18:47:37.600Z,84.38
2023-04-16T18:50:41.765Z,84.73
2023-04-16T18:53:46.192Z,85.56
2023-04-16T18:56:54.931Z,86.01
2023-04-16T18:59:58.830Z,86.60
2023-04-16T19:03:07.359Z,86.91
2023-04-16T19:06:12.361Z,86.72
2023-04-16T19:09:17.642Z,86.72
2023-04-16T19:12:21.742Z,86.23
2023-04-16T19:15:28.400Z,85.46
2023-04-16T19:18:35.247Z,86.54
2023-04-16T19:21:38.554Z,86.62
2023-04-16T19:24:43.187Z,87.08
2023-04-16T19:27:48.328Z,87.05
2023-04-16T19:30:54.116Z,86.99
2023-04-16T19:33:57.792Z,87.54
2023-04-16T19:37:02.390Z,88.25
2023-04-16T19:40:16.669Z,88.47
2023-04-16T19:43:20.624Z,89.86
2023-04-16T19:46:24.723Z,89.57
2023-04-16T19:49:30.774Z,90.04
2023-04-16T19:52:39.538Z,90.35
2023-04-16T19:55:43.501Z,90.70
2023-04-16T19:58:46.723Z,90.47
2023-04-16T20:01:51.390Z,90.55
2023-04-16T20:04:59.969Z,91.07
2023-04-16T20:08:04.337Z,91.05
2023-04-16T20:11:09.315Z,90.76
2023-04-16T20:14:13.310Z,91.37
2023-04-16T20:17:21.003Z,91.09
2023-04-16T20:20:25.335Z,90.00
2023-04-16T20:23:29.372Z,91.14
2023-04-16T20:26:36.845Z,91.39
2023-04-16T20:29:40.224Z,91.60
2023-04-16T20:32:44.289Z,91.01
2023-04-16T20:35:48.691Z,90.14
2023-04-16T20:38:54.148Z,88.82
2023-04-16T20:41:57.622Z,90.40
2023-04-16T20:45:01.874Z,88.89
2023-04-16T20:48:07.291Z,88.76
2023-04-16T20:51:10.398Z,88.79
2023-04-16T20:54:14.380Z,87.43
2023-04-16T20:57:17.459Z,87.17
2023-04-16T21:00:21.065Z,88.08
2023-04-16T21:03:24.980Z,90.37
2023-04-16T21:06:28.395Z,83.88
2023-04-16T21:09:31.736Z,82.33
2023-04-16T21:12:34.918Z,82.25
2023-04-16T21:15:42.058Z,81.67
2023-04-16T21:18:45.197Z,82.28
2023-04-16T21:21:48.184Z,82.01
2023-04-16T21:24:51.152Z,82.24
2023-04-16T21:27:53.812Z,81.53
2023-04-16T21:30:56.737Z,82.00
2023-04-16T21:34:00.935Z,82.61
2023-04-16T21:37:03.878Z,82.51
2023-04-16T21:40:08.235Z,82.62
2023-04-16T21:43:11.192Z,82.83
2023-04-16T21:46:14.032Z,84.02
2023-04-16T21:49:17.242Z,84.50
2023-04-16T21:52:20.076Z,85.52
2023-04-16T21:55:23.565Z,85.74
2023-04-16T21:58:26.519Z,85.93
2023-04-16T22:01:29.793Z,86.49
2023-04-16T22:04:39.045Z,87.79
2023-04-16T22:07:41.973Z,88.62
2023-04-16T22:10:45.145Z,89.84
2023-04-16T22:13:48.384Z,90.35
2023-04-16T22:16:52.506Z,90.84
2023-04-16T22:19:55.481Z,91.41
2023-04-16T22:22:59.959Z,91.65
2023-04-16T22:26:03.108Z,93.43
2023-04-16T22:29:07.083Z,94.25
2023-04-16T22:32:10.037Z,93.60
2023-04-16T22:35:13.276Z,95.63
2023-04-16T22:38:16.636Z,96.45
2023-04-16T22:41:19.788Z,96.35
2023-04-16T22:44:22.696Z,96.63
2023-04-16T22:47:25.955Z,97.26
2023-04-16T22:50:31.466Z,96.93
2023-04-16T22:53:35.249Z,97.38
2023-04-16T22:56:39.086Z,97.14
2023-04-16T22:59:42.316Z,97.49
2023-04-16T23:02:45.469Z,97.65
2023-04-16T23:05:49.354Z,97.87
2023-04-16T23:08:53.400Z,98.51
2023-04-16T23:11:58.759Z,98.04
2023-04-16T23:15:01.621Z,98.26
2023-04-16T23:18:05.990Z,98.05
2023-04-16T23:21:08.941Z,98.02
2023-04-16T23:24:12.281Z,98.50
2023-04-16T23:27:15.634Z,99.29
2023-04-16T23:30:19.265Z,98.84
2023-04-16T23:33:22.254Z,98.95
2023-04-16T23:36:27.067Z,98.88
2023-04-16T23:39:29.954Z,98.88
2023-04-16T23:42:33.180Z,99.80
2023-04-16T23:45:36.102Z,100.00
2023-04-16T23:48:39.415Z,100.00
2023-04-16T23:51:42.489Z,100.00
2023-04-16T23:54:46.899Z,100.00
2023-04-16T23:57:49.874Z,100.00
